sensor_id;sensor_type;location;lat;lon;timestamp;pressure;altitude;pressure_sealevel;temperature;humidity
12073;BME280;6098;49.004;8.372;2023-02-13T00:00:27;102367.12;;;5.71;90.01
12073;BME280;6098;49.004;8.372;2023-02-13T00:15:16;102363.45;;;5.57;90.44
12073;BME280;6098;49.004;8.372;2023-02-13T00:30:09;102368.16;;;5.48;90.86
12073;BME280;6098;49.004;8.372;2023-02-13T00:45:02;102355.64;;;5.31;91.73
12073;BME280;6098;49.004;8.372;2023-02-13T00:59:53;102355.83;;;5.14;92.44
12073;BME280;6098;49.004;8.372;2023-02-13T01:14:45;102364.91;;;5.06;92.63
12073;BME280;6098;49.004;8.372;2023-02-13T01:29:37;102364.66;;;4.90;92.87
12073;BME280;6098;49.004;8.372;2023-02-13T01:44:48;102365.61;;;4.69;93.39
12073;BME280;6098;49.004;8.372;2023-02-13T02:14:35;102377.64;;;4.55;93.26
12073;BME280;6098;49.004;8.372;2023-02-13T02:44:53;102349.05;;;4.23;94.00
12073;BME280;6098;49.004;8.372;2023-02-13T02:59:42;102346.19;;;4.11;94.17
12073;BME280;6098;49.004;8.372;2023-02-13T03:14:58;102349.73;;;4.13;93.55
12073;BME280;6098;49.004;8.372;2023-02-13T03:29:58;102364.86;;;4.03;93.55
12073;BME280;6098;49.004;8.372;2023-02-13T03:45:02;102383.52;;;3.97;93.56
12073;BME280;6098;49.004;8.372;2023-02-13T04:00:16;102399.31;;;3.77;94.26
12073;BME280;6098;49.004;8.372;2023-02-13T04:30:22;102401.83;;;3.73;93.76
12073;BME280;6098;49.004;8.372;2023-02-13T04:45:13;102396.64;;;3.56;93.91
12073;BME280;6098;49.004;8.372;2023-02-13T05:00:08;102397.62;;;3.41;94.10
12073;BME280;6098;49.004;8.372;2023-02-13T05:15:01;102385.98;;;3.28;93.89
12073;BME280;6098;49.004;8.372;2023-02-13T05:29:51;102376.30;;;3.26;93.68
12073;BME280;6098;49.004;8.372;2023-02-13T05:44:44;102388.88;;;3.22;93.42
12073;BME280;6098;49.004;8.372;2023-02-13T05:59:37;102387.05;;;3.00;93.91
12073;BME280;6098;49.004;8.372;2023-02-13T06:14:30;102382.14;;;2.95;93.75
12073;BME280;6098;49.004;8.372;2023-02-13T06:29:21;102382.44;;;2.72;94.21
12073;BME280;6098;49.004;8.372;2023-02-13T06:44:11;102402.02;;;2.70;94.60
12073;BME280;6098;49.004;8.372;2023-02-13T06:59:02;102398.95;;;2.86;94.28
12073;BME280;6098;49.004;8.372;2023-02-13T07:13:55;102421.50;;;2.81;94.71
12073;BME280;6098;49.004;8.372;2023-02-13T07:28:48;102426.29;;;2.98;95.34
12073;BME280;6098;49.004;8.372;2023-02-13T07:43:41;102435.67;;;3.06;94.92
12073;BME280;6098;49.004;8.372;2023-02-13T07:58:32;102444.46;;;3.08;95.49
12073;BME280;6098;49.004;8.372;2023-02-13T08:13:23;102438.31;;;3.43;94.58
12073;BME280;6098;49.004;8.372;2023-02-13T08:28:20;102448.20;;;3.75;93.22
12073;BME280;6098;49.004;8.372;2023-02-13T08:43:13;102440.05;;;4.01;91.71
12073;BME280;6098;49.004;8.372;2023-02-13T08:58:05;102452.52;;;4.34;89.91
12073;BME280;6098;49.004;8.372;2023-02-13T09:12:59;102453.05;;;4.62;87.45
12073;BME280;6098;49.004;8.372;2023-02-13T09:27:52;102450.67;;;4.76;84.45
12073;BME280;6098;49.004;8.372;2023-02-13T09:42:44;102470.42;;;4.55;84.25
12073;BME280;6098;49.004;8.372;2023-02-13T09:57:38;102479.89;;;4.47;85.82
12073;BME280;6098;49.004;8.372;2023-02-13T10:27:42;102479.47;;;4.69;87.39
12073;BME280;6098;49.004;8.372;2023-02-13T10:42:35;102472.45;;;4.92;86.58
12073;BME280;6098;49.004;8.372;2023-02-13T11:13:12;102435.94;;;5.97;83.35
12073;BME280;6098;49.004;8.372;2023-02-13T11:27:54;102443.41;;;6.34;81.48
12073;BME280;6098;49.004;8.372;2023-02-13T11:42:44;102423.68;;;6.79;79.82
12073;BME280;6098;49.004;8.372;2023-02-13T11:57:37;102402.15;;;7.37;77.61
12073;BME280;6098;49.004;8.372;2023-02-13T12:12:30;102398.06;;;7.91;75.28
12073;BME280;6098;49.004;8.372;2023-02-13T12:58:24;102357.73;;;9.24;70.26
12073;BME280;6098;49.004;8.372;2023-02-13T13:13:27;102354.14;;;9.50;68.16
12073;BME280;6098;49.004;8.372;2023-02-13T13:28:21;102341.59;;;9.94;67.03
12073;BME280;6098;49.004;8.372;2023-02-13T13:43:20;102330.05;;;10.14;66.18
12073;BME280;6098;49.004;8.372;2023-02-13T13:58:33;102334.66;;;10.49;65.72
12073;BME280;6098;49.004;8.372;2023-02-13T14:13:30;102331.90;;;10.62;65.45
12073;BME280;6098;49.004;8.372;2023-02-13T14:28:24;102331.54;;;10.53;66.98
12073;BME280;6098;49.004;8.372;2023-02-13T14:58:30;102299.38;;;9.61;70.01
12073;BME280;6098;49.004;8.372;2023-02-13T15:13:31;102292.00;;;9.29;71.54
12073;BME280;6098;49.004;8.372;2023-02-13T15:28:20;102279.27;;;9.09;72.56
12073;BME280;6098;49.004;8.372;2023-02-13T15:43:34;102277.08;;;8.89;73.55
12073;BME280;6098;49.004;8.372;2023-02-13T15:58:31;102281.52;;;8.73;74.25
12073;BME280;6098;49.004;8.372;2023-02-13T16:13:23;102279.76;;;8.55;75.07
12073;BME280;6098;49.004;8.372;2023-02-13T16:28:22;102278.88;;;8.34;76.00
12073;BME280;6098;49.004;8.372;2023-02-13T16:43:51;102276.61;;;8.12;76.95
12073;BME280;6098;49.004;8.372;2023-02-13T16:59:12;102294.63;;;7.87;77.84
12073;BME280;6098;49.004;8.372;2023-02-13T17:13:55;102293.23;;;7.62;78.74
12073;BME280;6098;49.004;8.372;2023-02-13T17:28:51;102309.82;;;7.36;79.67
12073;BME280;6098;49.004;8.372;2023-02-13T17:43:41;102304.83;;;7.12;80.28
12073;BME280;6098;49.004;8.372;2023-02-13T17:58:33;102326.69;;;6.92;81.17
12073;BME280;6098;49.004;8.372;2023-02-13T18:13:26;102318.61;;;6.71;81.94
12073;BME280;6098;49.004;8.372;2023-02-13T18:28:16;102324.62;;;6.54;82.48
12073;BME280;6098;49.004;8.372;2023-02-13T18:43:09;102304.72;;;6.38;83.08
12073;BME280;6098;49.004;8.372;2023-02-13T18:57:59;102313.38;;;6.25;83.39
12073;BME280;6098;49.004;8.372;2023-02-13T19:12:51;102319.78;;;6.09;84.07
12073;BME280;6098;49.004;8.372;2023-02-13T19:27:41;102318.30;;;5.94;84.09
12073;BME280;6098;49.004;8.372;2023-02-13T19:42:31;102328.08;;;5.68;84.34
12073;BME280;6098;49.004;8.372;2023-02-13T19:57:22;102334.80;;;5.45;85.23
12073;BME280;6098;49.004;8.372;2023-02-13T20:12:12;102324.83;;;5.22;86.76
12073;BME280;6098;49.004;8.372;2023-02-13T20:27:03;102339.36;;;4.98;87.99
12073;BME280;6098;49.004;8.372;2023-02-13T20:41:57;102336.07;;;4.83;89.51
12073;BME280;6098;49.004;8.372;2023-02-13T20:56:49;102337.28;;;4.51;90.11
12073;BME280;6098;49.004;8.372;2023-02-13T21:11:40;102338.05;;;3.75;92.70
12073;BME280;6098;49.004;8.372;2023-02-13T21:26:28;102338.33;;;3.27;94.76
12073;BME280;6098;49.004;8.372;2023-02-13T21:41:20;102338.05;;;2.96;94.96
12073;BME280;6098;49.004;8.372;2023-02-13T21:56:13;102332.95;;;2.65;96.45
12073;BME280;6098;49.004;8.372;2023-02-13T22:11:02;102341.17;;;2.28;96.60
12073;BME280;6098;49.004;8.372;2023-02-13T22:25:53;102347.62;;;2.25;97.05
12073;BME280;6098;49.004;8.372;2023-02-13T22:40:49;102347.63;;;2.08;97.95
12073;BME280;6098;49.004;8.372;2023-02-13T22:55:41;102352.85;;;2.09;99.98
12073;BME280;6098;49.004;8.372;2023-02-13T23:10:33;102349.69;;;2.05;100.00
12073;BME280;6098;49.004;8.372;2023-02-13T23:25:28;102359.80;;;2.08;100.00
12073;BME280;6098;49.004;8.372;2023-02-13T23:40:20;102351.72;;;2.00;100.00
12073;BME280;6098;49.004;8.372;2023-02-13T23:55:12;102350.23;;;2.09;100.00
